Home > Products > Valid Products > TAF

000
FTPA31 PHFO 302300
TAFHNL
TAF
PHNL 302330Z 0100/0206 19009KT P6SM FEW030 SCT045
     FM010500 VRB04KT P6SM FEW030 SCT045
     FM010900 34004KT P6SM FEW025
     FM012000 19010KT P6SM FEW030 SCT045=



000
FTPA31 PHFO 302100 AAA
TAFHNL
TAF AMD
PHNL 302108Z 3021/0124 19008KT P6SM FEW030 SCT045
     FM010500 VRB04KT P6SM FEW030 SCT045
     FM010900 34004KT P6SM FEW025
     FM012000 19009KT P6SM FEW030 SCT045=



000
FTPA31 PHFO 302100 AAA
TAFHNL
TAF AMD
PHNL 302108Z 3021/0124 19008KT P6SM FEW030 SCT045
     FM010500 VRB04KT P6SM FEW030 SCT045
     FM010900 34004KT P6SM FEW025
     FM012000 19009KT P6SM FEW030 SCT045=



000
FTPA31 PHFO 301700
TAFHNL
TAF
PHNL 301738Z 3018/0124 34004KT P6SM FEW025
     FM302000 20009KT P6SM FEW030 SCT045
     FM010500 VRB04KT P6SM FEW030 SCT045
     FM010900 34004KT P6SM FEW025
     FM012000 19009KT P6SM FEW030 SCT045=



000
FTPA31 PHFO 301700
TAFHNL
TAF
PHNL 301738Z 3018/0124 34004KT P6SM FEW025
     FM302000 20009KT P6SM FEW030 SCT045
     FM010500 VRB04KT P6SM FEW030 SCT045
     FM010900 34004KT P6SM FEW025
     FM012000 19009KT P6SM FEW030 SCT045=



000
FTPA31 PHFO 301400 AAA
TAFHNL
TAF AMD
PHNL 301435Z 3015/0118 34004KT P6SM FEW030
     FM302000 17009KT P6SM FEW030 SCT045
     FM010000 22009KT P6SM FEW030 SCT045
     FM010500 VRB04KT P6SM FEW030 SCT045
     FM010700 34004KT P6SM FEW025 SCT040=



000
FTPA31 PHFO 301400 AAA
TAFHNL
TAF AMD
PHNL 301435Z 3015/0118 34004KT P6SM FEW030
     FM302000 17009KT P6SM FEW030 SCT045
     FM010000 22009KT P6SM FEW030 SCT045
     FM010500 VRB04KT P6SM FEW030 SCT045
     FM010700 34004KT P6SM FEW025 SCT040=



000
FTPA31 PHFO 301100
TAFHNL
TAF
PHNL 301120Z 3012/0118 34004KT P6SM FEW030
     FM302000 17009KT P6SM FEW030 SCT045
     FM010000 22009KT P6SM FEW030 SCT045
     FM010500 VRB04KT P6SM FEW030 SCT045
     FM010700 34004KT P6SM FEW025 SCT040=



000
FTPA31 PHFO 301100
TAFHNL
TAF
PHNL 301120Z 3012/0118 34004KT P6SM FEW030
     FM302000 17009KT P6SM FEW030 SCT045
     FM010000 22009KT P6SM FEW030 SCT045
     FM010500 VRB04KT P6SM FEW030 SCT045
     FM010700 34004KT P6SM FEW025 SCT040=



000
FTPA31 PHFO 301100
TAFHNL
TAF
PHNL 301120Z 3012/0118 34004KT P6SM FEW030
     FM302000 17009KT P6SM FEW030 SCT045
     FM010000 22009KT P6SM FEW030 SCT045
     FM010500 VRB04KT P6SM FEW030 SCT045
     FM010700 34004KT P6SM FEW025 SCT040=



000
FTPA31 PHFO 300800 AAA
TAFHNL
TAF AMD
PHNL 300836Z 3009/0112 VRB03KT P6SM FEW025 SCT035 SCT045
     FM302000 17009KT P6SM FEW030 SCT045
     FM010000 22009KT P6SM FEW030 SCT045
     FM010500 VRB04KT P6SM FEW030 SCT045
     FM010700 34004KT P6SM FEW025 SCT040=



000
FTPA31 PHFO 300800 AAA
TAFHNL
TAF AMD
PHNL 300836Z 3009/0112 VRB03KT P6SM FEW025 SCT035 SCT045
     FM302000 17009KT P6SM FEW030 SCT045
     FM010000 22009KT P6SM FEW030 SCT045
     FM010500 VRB04KT P6SM FEW030 SCT045
     FM010700 34004KT P6SM FEW025 SCT040=



000
FTPA31 PHFO 300500
TAFHNL
TAF
PHNL 300520Z 3006/0112 VRB05KT P6SM FEW025 SCT035 SCT050
     FM300800 34004KT P6SM FEW025 SCT040
     FM302000 17009KT P6SM FEW030 SCT045
     FM010000 22009KT P6SM FEW030 SCT045
     FM010500 VRB04KT P6SM FEW030 SCT045
     FM010700 34004KT P6SM FEW025 SCT040=



000
FTPA31 PHFO 300500
TAFHNL
TAF
PHNL 300520Z 3006/0112 VRB05KT P6SM FEW025 SCT035 SCT050
     FM300800 34004KT P6SM FEW025 SCT040
     FM302000 17009KT P6SM FEW030 SCT045
     FM010000 22009KT P6SM FEW030 SCT045
     FM010500 VRB04KT P6SM FEW030 SCT045
     FM010700 34004KT P6SM FEW025 SCT040=



000
FTPA31 PHFO 300500
TAFHNL
TAF
PHNL 300520Z 3006/0112 VRB05KT P6SM FEW025 SCT035 SCT050
     FM300800 34004KT P6SM FEW025 SCT040
     FM302000 17009KT P6SM FEW030 SCT045
     FM010000 22009KT P6SM FEW030 SCT045
     FM010500 VRB04KT P6SM FEW030 SCT045
     FM010700 34004KT P6SM FEW025 SCT040=



000
FTPA31 PHFO 300300 CCB
TAFHNL
TAF COR
PHNL 300329Z 3003/0106 16006KT P6SM FEW025 SCT050
     FM300500 07006KT P6SM FEW025
     FM300800 34003KT P6SM SKC
     FM302000 19008KT P6SM FEW030 SCT050
     FM302300 22009KT P6SM FEW030 SCT050
     FM010500 VRB03KT P6SM FEW030 SCT050=



000
FTPA31 PHFO 300300 CCB
TAFHNL
TAF COR
PHNL 300329Z 3003/0106 16006KT P6SM FEW025 SCT050
     FM300500 07006KT P6SM FEW025
     FM300800 34003KT P6SM SKC
     FM302000 19008KT P6SM FEW030 SCT050
     FM302300 22009KT P6SM FEW030 SCT050
     FM010500 VRB03KT P6SM FEW030 SCT050=



000
FTPA31 PHFO 300300 AAC
TAFHNL
TAF AMD
PHNL 300326Z 3003/0106 16006KT P6SM FEW025 SCT050
     FM300400 08006KT P6SM FEW025
     FM300700 34003KT P6SM FEW030 SCT050
     FM302000 19008KT P6SM FEW030 SCT050
     FM010500 VRB03KT P6SM FEW030 SCT050=



000
FTPA31 PHFO 300300 AAC
TAFHNL
TAF AMD
PHNL 300326Z 3003/0106 16006KT P6SM FEW025 SCT050
     FM300400 08006KT P6SM FEW025
     FM300700 34003KT P6SM FEW030 SCT050
     FM302000 19008KT P6SM FEW030 SCT050
     FM010500 VRB03KT P6SM FEW030 SCT050=



000
FTPA31 PHFO 300300 AAC
TAFHNL
TAF AMD
PHNL 300326Z 3003/0106 16006KT P6SM FEW025 SCT050
     FM300400 08006KT P6SM FEW025
     FM300700 34003KT P6SM FEW030 SCT050
     FM302000 19008KT P6SM FEW030 SCT050
     FM010500 VRB03KT P6SM FEW030 SCT050=



000
FTPA31 PHFO 300300 AAB
TAFHNL
TAF AMD
PHNL 300301Z 3003/0106 21007KT P6SM FEW025 SCT050
     FM300700 34003KT P6SM FEW030 SCT050
     FM302000 19008KT P6SM FEW030 SCT050
     FM010500 VRB03KT P6SM FEW030 SCT050=



000
FTPA31 PHFO 300300 AAB
TAFHNL
TAF AMD
PHNL 300301Z 3003/0106 21007KT P6SM FEW025 SCT050
     FM300700 34003KT P6SM FEW030 SCT050
     FM302000 19008KT P6SM FEW030 SCT050
     FM010500 VRB03KT P6SM FEW030 SCT050=



000
FTPA31 PHFO 300100 AAA
TAFHNL
TAF AMD
PHNL 300126Z 3001/0106 21008KT P6SM SCT030 SCT050
     FM300700 34003KT P6SM FEW030 SCT050
     FM302000 19008KT P6SM FEW030 SCT050
     FM010500 VRB03KT P6SM FEW030 SCT050=



000
FTPA31 PHFO 300100 AAA
TAFHNL
TAF AMD
PHNL 300126Z 3001/0106 21008KT P6SM SCT030 SCT050
     FM300700 34003KT P6SM FEW030 SCT050
     FM302000 19008KT P6SM FEW030 SCT050
     FM010500 VRB03KT P6SM FEW030 SCT050=



000
FTPA31 PHFO 292300 CCA
TAFHNL
TAF COR
PHNL 292342Z 3000/0106 21008KT P6SM SCT030 BKN050
     FM300700 34003KT P6SM FEW030 SCT050
     FM302000 19008KT P6SM FEW030 SCT050
     FM010500 VRB03KT P6SM FEW020 BKN050=



000
FTPA31 PHFO 292300 CCA
TAFHNL
TAF COR
PHNL 292342Z 3000/0106 21008KT P6SM SCT030 BKN050
     FM300700 34003KT P6SM FEW030 SCT050
     FM302000 19008KT P6SM FEW030 SCT050
     FM010500 VRB03KT P6SM FEW020 BKN050=



000
FTPA31 PHFO 292300 CCA
TAFHNL
TAF COR
PHNL 292342Z 3000/0106 21008KT P6SM SCT030 BKN050
     FM300700 34003KT P6SM FEW030 SCT050
     FM302000 19008KT P6SM FEW030 SCT050
     FM010500 VRB03KT P6SM FEW020 BKN050=



000
FTPA31 PHFO 292300
TAFHNL
TAF
PHNL 292330Z 3000/0106 17009KT P6SM FEW030 SCT050
     FM300200 20006KT P6SM SCT030 BKN050
     FM300700 34003KT P6SM FEW030 SCT050
     FM302000 19008KT P6SM FEW030 SCT050
     FM010500 VRB03KT P6SM FEW020 BKN050=



000
FTPA31 PHFO 292300
TAFHNL
TAF
PHNL 292330Z 3000/0106 17009KT P6SM FEW030 SCT050
     FM300200 20006KT P6SM SCT030 BKN050
     FM300700 34003KT P6SM FEW030 SCT050
     FM302000 19008KT P6SM FEW030 SCT050
     FM010500 VRB03KT P6SM FEW020 BKN050=



000
FTPA31 PHFO 292100 AAA
TAFHNL
TAF AMD
PHNL 292105Z 2921/3024 17009KT P6SM FEW030 SCT050
     FM300100 20006KT P6SM SCT030 BKN050
     FM300800 34003KT P6SM FEW030 SCT050
     FM302100 19008KT P6SM FEW030 SCT050=



000
FTPA31 PHFO 291700
TAFHNL
TAF
PHNL 291735Z 2918/3024 VRB03KT P6SM FEW030
     FM292100 17008KT P6SM FEW030 SCT050
     FM300100 20006KT P6SM SCT030 BKN050
     FM300800 34003KT P6SM FEW030 SCT050
     FM302100 19008KT P6SM FEW030 SCT050=



000
FTPA31 PHFO 291700
TAFHNL
TAF
PHNL 291735Z 2918/3024 VRB03KT P6SM FEW030
     FM292100 17008KT P6SM FEW030 SCT050
     FM300100 20006KT P6SM SCT030 BKN050
     FM300800 34003KT P6SM FEW030 SCT050
     FM302100 19008KT P6SM FEW030 SCT050=



000
FTPA31 PHFO 291400 AAA
TAFHNL
TAF AMD
PHNL 291436Z 2915/3018 33004KT P6SM FEW030 SCT060
     FM292100 17008KT P6SM FEW030 BKN050
     FM300500 VRB05KT P6SM SCT025 BKN050
     FM300800 34005KT P6SM FEW025 SCT050=



000
FTPA31 PHFO 291400 AAA
TAFHNL
TAF AMD
PHNL 291436Z 2915/3018 33004KT P6SM FEW030 SCT060
     FM292100 17008KT P6SM FEW030 BKN050
     FM300500 VRB05KT P6SM SCT025 BKN050
     FM300800 34005KT P6SM FEW025 SCT050=



000
FTPA31 PHFO 291400 AAA
TAFHNL
TAF AMD
PHNL 291436Z 2915/3018 33004KT P6SM FEW030 SCT060
     FM292100 17008KT P6SM FEW030 BKN050
     FM300500 VRB05KT P6SM SCT025 BKN050
     FM300800 34005KT P6SM FEW025 SCT050=



000
FTPA31 PHFO 291400 AAA
TAFHNL
TAF AMD
PHNL 291436Z 2915/3018 33004KT P6SM FEW030 SCT060
     FM292100 17008KT P6SM FEW030 BKN050
     FM300500 VRB05KT P6SM SCT025 BKN050
     FM300800 34005KT P6SM FEW025 SCT050=



000
FTPA31 PHFO 291100
TAFHNL
TAF
PHNL 291120Z 2912/3018 34004KT P6SM FEW025 SCT040 BKN060
     FM292100 17008KT P6SM FEW030 BKN050
     FM300500 VRB05KT P6SM SCT025 BKN050
     FM300800 34005KT P6SM FEW025 SCT050=



000
FTPA31 PHFO 291100
TAFHNL
TAF
PHNL 291120Z 2912/3018 34004KT P6SM FEW025 SCT040 BKN060
     FM292100 17008KT P6SM FEW030 BKN050
     FM300500 VRB05KT P6SM SCT025 BKN050
     FM300800 34005KT P6SM FEW025 SCT050=



000
FTPA31 PHFO 290800 AAA
TAFHNL
TAF AMD
PHNL 290835Z 2909/3012 34004KT P6SM FEW025 SCT045 BKN060
     FM292100 17008KT P6SM FEW030 BKN050
     FM300500 VRB05KT P6SM FEW025 SCT050=



000
FTPA31 PHFO 290800 AAA
TAFHNL
TAF AMD
PHNL 290835Z 2909/3012 34004KT P6SM FEW025 SCT045 BKN060
     FM292100 17008KT P6SM FEW030 BKN050
     FM300500 VRB05KT P6SM FEW025 SCT050=



000
FTPA31 PHFO 290800 AAA
TAFHNL
TAF AMD
PHNL 290835Z 2909/3012 34004KT P6SM FEW025 SCT045 BKN060
     FM292100 17008KT P6SM FEW030 BKN050
     FM300500 VRB05KT P6SM FEW025 SCT050=



000
FTPA31 PHFO 290800 AAA
TAFHNL
TAF AMD
PHNL 290835Z 2909/3012 34004KT P6SM FEW025 SCT045 BKN060
     FM292100 17008KT P6SM FEW030 BKN050
     FM300500 VRB05KT P6SM FEW025 SCT050=



000
FTPA31 PHFO 290500
TAFHNL
TAF
PHNL 290520Z 2906/3012 VRB05KT P6SM VCSH SCT025 BKN040
     FM290800 34004KT P6SM FEW025 SCT045
     FM292100 17008KT P6SM FEW030 BKN050
     FM300500 VRB05KT P6SM FEW025 SCT050=



000
FTPA31 PHFO 290500
TAFHNL
TAF
PHNL 290520Z 2906/3012 VRB05KT P6SM VCSH SCT025 BKN040
     FM290800 34004KT P6SM FEW025 SCT045
     FM292100 17008KT P6SM FEW030 BKN050
     FM300500 VRB05KT P6SM FEW025 SCT050=



000
FTPA31 PHFO 290500
TAFHNL
TAF
PHNL 290520Z 2906/3012 VRB05KT P6SM VCSH SCT025 BKN040
     FM290800 34004KT P6SM FEW025 SCT045
     FM292100 17008KT P6SM FEW030 BKN050
     FM300500 VRB05KT P6SM FEW025 SCT050=



000
FTPA31 PHFO 290500
TAFHNL
TAF
PHNL 290520Z 2906/3012 VRB05KT P6SM VCSH SCT025 BKN040
     FM290800 34004KT P6SM FEW025 SCT045
     FM292100 17008KT P6SM FEW030 BKN050
     FM300500 VRB05KT P6SM FEW025 SCT050=



000
FTPA31 PHFO 290300 AAA
TAFHNL
TAF AMD
PHNL 290308Z 2903/3006 14008KT P6SM VCSH FEW030 BKN050
     FM290400 05006KT P6SM FEW030 SCT060
     FM291000 35003KT P6SM FEW050
     FM292100 17008KT P6SM FEW030 BKN060
     FM300300 07005KT P6SM FEW030 SCT060=



000
FTPA31 PHFO 290300 AAA
TAFHNL
TAF AMD
PHNL 290308Z 2903/3006 14008KT P6SM VCSH FEW030 BKN050
     FM290400 05006KT P6SM FEW030 SCT060
     FM291000 35003KT P6SM FEW050
     FM292100 17008KT P6SM FEW030 BKN060
     FM300300 07005KT P6SM FEW030 SCT060=



000
FTPA31 PHFO 282300
TAFHNL
TAF
PHNL 282323Z 2900/3006 15010KT P6SM FEW030 SCT060
     FM290200 05006KT P6SM FEW030 SCT060
     FM291000 35003KT P6SM FEW050
     FM292100 17008KT P6SM FEW030 BKN060
     FM300300 07005KT P6SM FEW030 SCT060=



000
FTPA31 PHFO 282300
TAFHNL
TAF
PHNL 282323Z 2900/3006 15010KT P6SM FEW030 SCT060
     FM290200 05006KT P6SM FEW030 SCT060
     FM291000 35003KT P6SM FEW050
     FM292100 17008KT P6SM FEW030 BKN060
     FM300300 07005KT P6SM FEW030 SCT060=



000
FTPA31 PHFO 281700
TAFHNL
TAF
PHNL 281726Z 2818/2924 VRB05KT P6SM FEW030
     FM282000 14009KT P6SM FEW030 SCT060
     FM290200 05006KT P6SM FEW030 SCT060
     FM291000 35003KT P6SM FEW030=



000
FTPA31 PHFO 281700
TAFHNL
TAF
PHNL 281726Z 2818/2924 VRB05KT P6SM FEW030
     FM282000 14009KT P6SM FEW030 SCT060
     FM290200 05006KT P6SM FEW030 SCT060
     FM291000 35003KT P6SM FEW030=



000
FTPA31 PHFO 281700
TAFHNL
TAF
PHNL 281726Z 2818/2924 VRB05KT P6SM FEW030
     FM282000 14009KT P6SM FEW030 SCT060
     FM290200 05006KT P6SM FEW030 SCT060
     FM291000 35003KT P6SM FEW030=



000
FTPA31 PHFO 281700
TAFHNL
TAF
PHNL 281726Z 2818/2924 VRB05KT P6SM FEW030
     FM282000 14009KT P6SM FEW030 SCT060
     FM290200 05006KT P6SM FEW030 SCT060
     FM291000 35003KT P6SM FEW030=



000
FTPA31 PHFO 281400 RRA
TAFHNL
TAF
PHNL 281421Z 2815/2918 01006KT P6SM FEW030 SCT060
     FM282000 15010KT P6SM FEW030 SCT060
     FM290200 05008KT P6SM FEW030 SCT060
     FM291000 VRB02KT P6SM SCT030=



000
FTPA31 PHFO 281400 RRA
TAFHNL
TAF
PHNL 281421Z 2815/2918 01006KT P6SM FEW030 SCT060
     FM282000 15010KT P6SM FEW030 SCT060
     FM290200 05008KT P6SM FEW030 SCT060
     FM291000 VRB02KT P6SM SCT030=



000
FTPA31 PHFO 281400 RRA
TAFHNL
TAF
PHNL 281421Z 2815/2918 01006KT P6SM FEW030 SCT060
     FM282000 15010KT P6SM FEW030 SCT060
     FM290200 05008KT P6SM FEW030 SCT060
     FM291000 VRB02KT P6SM SCT030=



000
FTPA31 PHFO 281400 RRA
TAFHNL
TAF
PHNL 281421Z 2815/2918 01006KT P6SM FEW030 SCT060
     FM282000 15010KT P6SM FEW030 SCT060
     FM290200 05008KT P6SM FEW030 SCT060
     FM291000 VRB02KT P6SM SCT030=



000
FTPA31 PHFO 281100
TAFHNL
TAF
PHNL 281131Z 2812/2918 02006KT P6SM FEW030 SCT060
     FM282000 15010KT P6SM FEW030 SCT060
     FM290200 05008KT P6SM FEW030 SCT060
     FM291000 VRB02KT P6SM SCT030=



000
FTPA31 PHFO 281100
TAFHNL
TAF
PHNL 281131Z 2812/2918 02006KT P6SM FEW030 SCT060
     FM282000 15010KT P6SM FEW030 SCT060
     FM290200 05008KT P6SM FEW030 SCT060
     FM291000 VRB02KT P6SM SCT030=



000
FTPA31 PHFO 280800 RRA
TAFHNL
TAF
PHNL 280838Z 2809/2912 05006KT P6SM FEW030 SCT045
     FM282100 15010KT P6SM FEW030 SCT045
     FM290300 05008KT P6SM FEW030 SCT045=



000
FTPA31 PHFO 280800 RRA
TAFHNL
TAF
PHNL 280838Z 2809/2912 05006KT P6SM FEW030 SCT045
     FM282100 15010KT P6SM FEW030 SCT045
     FM290300 05008KT P6SM FEW030 SCT045=



000
FTPA31 PHFO 280800 RRA
TAFHNL
TAF
PHNL 280838Z 2809/2912 05006KT P6SM FEW030 SCT045
     FM282100 15010KT P6SM FEW030 SCT045
     FM290300 05008KT P6SM FEW030 SCT045=



000
FTPA31 PHFO 280800 RRA
TAFHNL
TAF
PHNL 280838Z 2809/2912 05006KT P6SM FEW030 SCT045
     FM282100 15010KT P6SM FEW030 SCT045
     FM290300 05008KT P6SM FEW030 SCT045=



000
FTPA31 PHFO 280500
TAFHNL
TAF
PHNL 280531Z 2806/2912 05008KT P6SM FEW030 SCT045
     FM282100 15008KT P6SM FEW030 SCT045
     FM290300 05008KT P6SM FEW030 SCT045=



000
FTPA31 PHFO 280500
TAFHNL
TAF
PHNL 280531Z 2806/2912 05008KT P6SM FEW030 SCT045
     FM282100 15008KT P6SM FEW030 SCT045
     FM290300 05008KT P6SM FEW030 SCT045=



000
FTPA31 PHFO 280300 AAA
TAFHNL
TAF AMD
PHNL 280309Z 2803/2906 06011KT P6SM FEW030 SCT050
     FM280500 06005KT P6SM FEW050
     FM282100 13008KT P6SM FEW030 SCT045
     FM290300 03006KT P6SM FEW050=



000
FTPA31 PHFO 280300 AAA
TAFHNL
TAF AMD
PHNL 280309Z 2803/2906 06011KT P6SM FEW030 SCT050
     FM280500 06005KT P6SM FEW050
     FM282100 13008KT P6SM FEW030 SCT045
     FM290300 03006KT P6SM FEW050=



000
FTPA31 PHFO 280300 AAA
TAFHNL
TAF AMD
PHNL 280309Z 2803/2906 06011KT P6SM FEW030 SCT050
     FM280500 06005KT P6SM FEW050
     FM282100 13008KT P6SM FEW030 SCT045
     FM290300 03006KT P6SM FEW050=



    US Dept of Commerce
    National Oceanic and Atmospheric Administration
    National Weather Service
    1325 East West Highway
    Silver Spring, MD 20910
    Page Author: NWS Internet Services Team
Disclaimer
Information Quality
Credits
Glossary
Privacy Policy
Freedom of Information Act (FOIA)
About Us
Career Opportunities